Flight Track Log - Related Links

Times and Time Zones

All times are in EST time to prevent confusion due to time zone crossing. See the FSR411 flight status page for this flight to view local times or setup timezone preferences in your user account.

Time Position Orientation Groundspeed Altitude Reporting Facility
EST Latitude Longitude Course Direction KTS MPH feet Rate Location/Type
Fri 01:15:21 PM 42.4667 -71.3000 238° Southwest 138 159 900  Level KA90
Fri 01:16:59 PM 42.4175 -71.4083 238° Southwest 203 234 5,900 3,354 Climbing Boston Center
Fri 01:18:02 PM 42.3825 -71.4708 233° Southwest 209 241 9,900 3,541 Climbing Boston Center
Fri 01:19:01 PM 42.3714 -71.5642 261° West 254 292 13,100 3,197 Climbing Boston Center
Fri 01:20:04 PM 42.3489 -71.6819 256° West 317 365 16,400 3,387 Climbing Boston Center
Fri 01:21:05 PM 42.3281 -71.8031 257° West 332 382 20,100 3,049 Climbing Boston Center
Fri 01:22:06 PM 42.3081 -71.9214 257° West 328 377 22,600 1,918 Climbing Boston Center
Fri 01:23:07 PM 42.2856 -72.0433 256° West 331 381 24,000 689 Climbing Boston Center
Fri 01:24:08 PM 42.2608 -72.1689 255° West 338 389 24,000  Level Boston Center
Fri 01:25:08 PM 42.2386 -72.2947 257° West 343 395 24,000  Level Boston Center
Fri 01:26:09 PM 42.2172 -72.4189 257° West 342 394 24,000  Level Boston Center
Fri 01:27:10 PM 42.2172 -72.5414 270° West 332 382 24,000  Level Boston Center
Fri 01:28:13 PM 42.2175 -72.6661 270° West 330 380 24,000  Level Boston Center
Fri 01:29:14 PM 42.2161 -72.7908 269° West 330 380 24,000  Level Boston Center
Fri 01:30:15 PM 42.2156 -72.9167 270° West 332 382 24,000  Level Boston Center
Fri 01:31:16 PM 42.2142 -73.0428 269° West 334 384 24,000  Level Boston Center
Fri 01:32:16 PM 42.2128 -73.1675 269° West 330 380 24,000  Level Boston Center
Fri 01:33:17 PM 42.2106 -73.3194 269° West 335 386 24,000  Level Boston Center
Fri 01:34:18 PM 42.2086 -73.4369 269° West 338 389 24,000  Level Boston Center
Fri 01:35:21 PM 42.2081 -73.5628 270° West 337 388 24,000  Level Boston Center
Fri 01:36:22 PM 42.2050 -73.6906 268° West 341 392 24,000  Level Boston Center
Fri 01:37:22 PM 42.2031 -73.8275 269° West 339 390 24,000  Level Boston Center
Fri 01:38:23 PM 42.2006 -73.9569 269° West 344 396 24,000  Level Boston Center
Fri 01:39:26 PM 42.1983 -74.0867 269° West 346 398 24,000  Level Boston Center
Fri 01:40:27 PM 42.1956 -74.2181 268° West 350 403 24,000  Level Boston Center
Fri 01:41:28 PM 42.1931 -74.3461 269° West 344 396 24,000  Level Boston Center
Fri 01:42:28 PM 42.1658 -74.4925 256° West 363 418 24,000 -645 Level Boston Center
Fri 01:43:29 PM 42.1253 -74.6147 246° West 360 414 22,700 -1,377 Descending Boston Center
Fri 01:44:30 PM 42.0878 -74.7369 248° West 355 409 21,200 -1,339 Descending Boston Center
Fri 01:45:30 PM 42.0511 -74.8564 248° West 348 400 20,000 -1,065 Descending Boston Center
Fri 01:46:34 PM 42.0106 -74.9817 246° West 342 394 19,000 -484 Descending Boston Center
Fri 01:47:34 PM 41.9733 -75.0989 247° West 343 395 19,000  Level Boston Center
Fri 01:48:36 PM 41.9122 -75.1825 226° Southwest 376 433 19,000  Level Boston Center
Fri 01:49:36 PM 41.8169 -75.2553 210° Southwest 392 451 19,000 -2,250 Level Boston Center
Fri 01:50:36 PM 41.7139 -75.3381 211° Southwest 362 417 14,500 -4,711 Descending Boston Center
Fri 01:51:37 PM 41.6308 -75.4025 210° Southwest 345 397 9,500 -3,639 Descending Boston Center
Fri 01:52:38 PM 41.5675 -75.4544 212° Southwest 280 322 7,100 -1,707 Descending Boston Center
Fri 01:53:40 PM 41.5025 -75.5039 210° Southwest 272 313 6,000 -537 Descending Boston Center
Fri 01:54:41 PM 41.4275 -75.5011 178° South 270 311 6,000  Level Boston Center
Fri 01:55:42 PM 41.3508 -75.4911 174° South 274 315 6,000 -455 Level Boston Center
Fri 01:56:53 PM 41.2569 -75.4875 178° South 271 312 5,000 -458 Descending New York Center
Fri 01:57:53 PM 41.1822 -75.4794 175° South 271 312 5,000  Level New York Center
Fri 01:58:53 PM 41.1117 -75.4747 177° South 271 312 5,000  Level New York Center
Fri 01:59:53 PM 41.0431 -75.4700 177° South 271 312 5,000  Level New York Center
Fri 02:00:53 PM 40.9664 -75.4644 177° South 271 312 5,000 -450 Level New York Center
Fri 02:01:53 PM 40.8942 -75.4431 167° South 271 312 4,100 -1,000 Descending New York Center
Fri 02:02:53 PM 40.8261 -75.4247 168° South 271 312 3,000 -600 Descending New York Center
Fri 02:03:53 PM 40.7625 -75.4039 166° South 228 262 2,900 -500 Descending New York Center
Fri 02:04:53 PM 40.7153 -75.3817 160° South 200 230 2,000 -800 Descending New York Center
Fri 02:05:53 PM 40.6819 -75.3847 184° South 174 200 1,300 -350 Descending New York Center
Fri 02:06:53 PM 40.6408 -75.3711 166° South 174 200 1,300 4,850 Level New York Center
Fri 02:07:53 PM 40.5933 -75.3544 165° South 174 200 11,000 4,850 Climbing New York Center
Fri 02:08:53 PM 40.5483 -75.3378 164° South 174 200 11,000  Level New York Center

Login

Don't have an account? Register now (free) for customized features, flight alerts, and more!